sensor_id;sensor_type;location;lat;lon;timestamp;temperature;humidity
27188;DHT22;14708;50.872;5.306;2022-10-16T00:00:31;21.90;70.90
27188;DHT22;14708;50.872;5.306;2022-10-16T00:02:57;21.90;71.00
27188;DHT22;14708;50.872;5.306;2022-10-16T00:05:22;21.90;70.90
27188;DHT22;14708;50.872;5.306;2022-10-16T00:07:48;21.80;70.90
27188;DHT22;14708;50.872;5.306;2022-10-16T00:10:13;21.90;70.90
27188;DHT22;14708;50.872;5.306;2022-10-16T00:12:39;21.90;70.90
27188;DHT22;14708;50.872;5.306;2022-10-16T00:15:05;21.80;70.80
27188;DHT22;14708;50.872;5.306;2022-10-16T00:17:31;21.80;70.90
27188;DHT22;14708;50.872;5.306;2022-10-16T00:19:57;21.80;70.80
27188;DHT22;14708;50.872;5.306;2022-10-16T00:22:23;21.80;70.90
27188;DHT22;14708;50.872;5.306;2022-10-16T00:24:49;21.80;70.90
27188;DHT22;14708;50.872;5.306;2022-10-16T00:27:14;21.80;70.70
27188;DHT22;14708;50.872;5.306;2022-10-16T00:29:40;21.80;70.80
27188;DHT22;14708;50.872;5.306;2022-10-16T00:32:05;21.80;70.70
27188;DHT22;14708;50.872;5.306;2022-10-16T00:34:31;21.80;70.60
27188;DHT22;14708;50.872;5.306;2022-10-16T00:36:56;21.80;70.80
27188;DHT22;14708;50.872;5.306;2022-10-16T00:39:22;21.80;70.60
27188;DHT22;14708;50.872;5.306;2022-10-16T00:41:48;21.80;70.70
27188;DHT22;14708;50.872;5.306;2022-10-16T00:44:47;21.80;70.90
27188;DHT22;14708;50.872;5.306;2022-10-16T00:49:51;21.80;70.80
27188;DHT22;14708;50.872;5.306;2022-10-16T00:52:18;21.80;70.70
27188;DHT22;14708;50.872;5.306;2022-10-16T00:54:46;21.80;70.60
27188;DHT22;14708;50.872;5.306;2022-10-16T00:57:12;21.70;70.50
27188;DHT22;14708;50.872;5.306;2022-10-16T00:59:39;21.80;70.80
27188;DHT22;14708;50.872;5.306;2022-10-16T01:02:08;21.80;70.50
27188;DHT22;14708;50.872;5.306;2022-10-16T01:04:43;21.70;71.40
27188;DHT22;14708;50.872;5.306;2022-10-16T01:07:36;21.70;70.60
27188;DHT22;14708;50.872;5.306;2022-10-16T01:15:21;21.70;70.60
27188;DHT22;14708;50.872;5.306;2022-10-16T01:18:01;21.70;70.60
27188;DHT22;14708;50.872;5.306;2022-10-16T01:20:31;21.70;70.70
27188;DHT22;14708;50.872;5.306;2022-10-16T01:28:25;21.70;70.70
27188;DHT22;14708;50.872;5.306;2022-10-16T01:30:54;21.70;70.50
27188;DHT22;14708;50.872;5.306;2022-10-16T01:33:35;21.70;71.30
27188;DHT22;14708;50.872;5.306;2022-10-16T01:36:12;21.70;70.60
27188;DHT22;14708;50.872;5.306;2022-10-16T01:38:39;21.70;70.50
27188;DHT22;14708;50.872;5.306;2022-10-16T01:43:37;21.60;70.40
27188;DHT22;14708;50.872;5.306;2022-10-16T01:46:05;21.70;70.50
27188;DHT22;14708;50.872;5.306;2022-10-16T01:48:31;21.60;70.40
27188;DHT22;14708;50.872;5.306;2022-10-16T01:51:07;21.70;70.40
27188;DHT22;14708;50.872;5.306;2022-10-16T01:53:33;21.60;70.30
27188;DHT22;14708;50.872;5.306;2022-10-16T01:56:00;21.60;70.40
27188;DHT22;14708;50.872;5.306;2022-10-16T01:58:28;21.60;70.30
27188;DHT22;14708;50.872;5.306;2022-10-16T02:00:56;21.60;70.50
27188;DHT22;14708;50.872;5.306;2022-10-16T02:03:22;21.60;70.40
27188;DHT22;14708;50.872;5.306;2022-10-16T02:05:53;21.60;70.50
27188;DHT22;14708;50.872;5.306;2022-10-16T02:08:21;21.60;70.50
27188;DHT22;14708;50.872;5.306;2022-10-16T02:10:48;21.60;70.50
27188;DHT22;14708;50.872;5.306;2022-10-16T02:13:17;21.60;70.60
27188;DHT22;14708;50.872;5.306;2022-10-16T02:15:44;21.60;70.50
27188;DHT22;14708;50.872;5.306;2022-10-16T02:18:10;21.50;70.40
27188;DHT22;14708;50.872;5.306;2022-10-16T02:20:51;21.60;70.50
27188;DHT22;14708;50.872;5.306;2022-10-16T02:23:50;21.50;70.30
27188;DHT22;14708;50.872;5.306;2022-10-16T02:29:11;21.50;70.40
27188;DHT22;14708;50.872;5.306;2022-10-16T02:31:41;21.50;70.20
27188;DHT22;14708;50.872;5.306;2022-10-16T02:34:09;21.50;70.50
27188;DHT22;14708;50.872;5.306;2022-10-16T02:36:38;21.50;70.40
27188;DHT22;14708;50.872;5.306;2022-10-16T02:39:04;21.50;70.30
27188;DHT22;14708;50.872;5.306;2022-10-16T02:41:30;21.50;70.30
27188;DHT22;14708;50.872;5.306;2022-10-16T02:43:56;21.50;70.20
27188;DHT22;14708;50.872;5.306;2022-10-16T02:46:22;21.50;70.40
27188;DHT22;14708;50.872;5.306;2022-10-16T02:48:47;21.50;70.30
27188;DHT22;14708;50.872;5.306;2022-10-16T02:51:13;21.50;70.10
27188;DHT22;14708;50.872;5.306;2022-10-16T02:53:38;21.50;70.00
27188;DHT22;14708;50.872;5.306;2022-10-16T02:56:04;21.50;70.20
27188;DHT22;14708;50.872;5.306;2022-10-16T02:58:29;21.50;70.30
27188;DHT22;14708;50.872;5.306;2022-10-16T03:00:55;21.50;70.20
27188;DHT22;14708;50.872;5.306;2022-10-16T03:03:21;21.50;70.30
27188;DHT22;14708;50.872;5.306;2022-10-16T03:05:46;21.50;70.30
27188;DHT22;14708;50.872;5.306;2022-10-16T03:08:12;21.50;70.30
27188;DHT22;14708;50.872;5.306;2022-10-16T03:10:38;21.50;70.20
27188;DHT22;14708;50.872;5.306;2022-10-16T03:13:04;21.40;70.20
27188;DHT22;14708;50.872;5.306;2022-10-16T03:15:29;21.50;70.40
27188;DHT22;14708;50.872;5.306;2022-10-16T03:17:57;21.40;70.40
27188;DHT22;14708;50.872;5.306;2022-10-16T03:20:24;21.50;70.30
27188;DHT22;14708;50.872;5.306;2022-10-16T03:22:49;21.40;70.40
27188;DHT22;14708;50.872;5.306;2022-10-16T03:25:15;21.50;70.40
27188;DHT22;14708;50.872;5.306;2022-10-16T03:27:40;21.50;70.40
27188;DHT22;14708;50.872;5.306;2022-10-16T03:30:06;21.40;70.50
27188;DHT22;14708;50.872;5.306;2022-10-16T03:32:32;21.40;70.30
27188;DHT22;14708;50.872;5.306;2022-10-16T03:34:58;21.40;70.30
27188;DHT22;14708;50.872;5.306;2022-10-16T03:37:24;21.40;70.30
27188;DHT22;14708;50.872;5.306;2022-10-16T03:39:49;21.40;70.40
27188;DHT22;14708;50.872;5.306;2022-10-16T03:42:15;21.40;70.30
27188;DHT22;14708;50.872;5.306;2022-10-16T03:44:40;21.40;70.40
27188;DHT22;14708;50.872;5.306;2022-10-16T03:47:06;21.40;70.30
27188;DHT22;14708;50.872;5.306;2022-10-16T03:49:31;21.40;70.40
27188;DHT22;14708;50.872;5.306;2022-10-16T03:51:57;21.30;70.40
27188;DHT22;14708;50.872;5.306;2022-10-16T03:54:23;21.40;70.30
27188;DHT22;14708;50.872;5.306;2022-10-16T03:56:48;21.30;70.30
27188;DHT22;14708;50.872;5.306;2022-10-16T03:59:14;21.40;70.40
27188;DHT22;14708;50.872;5.306;2022-10-16T04:01:39;21.30;70.30
27188;DHT22;14708;50.872;5.306;2022-10-16T04:04:05;21.40;70.40
27188;DHT22;14708;50.872;5.306;2022-10-16T04:06:31;21.30;70.20
27188;DHT22;14708;50.872;5.306;2022-10-16T04:08:56;21.40;70.40
27188;DHT22;14708;50.872;5.306;2022-10-16T04:11:22;21.30;70.30
27188;DHT22;14708;50.872;5.306;2022-10-16T04:13:48;21.40;70.40
27188;DHT22;14708;50.872;5.306;2022-10-16T04:16:13;21.40;70.20
27188;DHT22;14708;50.872;5.306;2022-10-16T04:18:39;21.40;70.20
27188;DHT22;14708;50.872;5.306;2022-10-16T04:21:05;21.40;70.20
27188;DHT22;14708;50.872;5.306;2022-10-16T04:23:32;21.30;70.10
27188;DHT22;14708;50.872;5.306;2022-10-16T04:25:59;21.30;70.30
27188;DHT22;14708;50.872;5.306;2022-10-16T04:28:24;21.30;70.20
27188;DHT22;14708;50.872;5.306;2022-10-16T04:30:50;21.30;70.10
27188;DHT22;14708;50.872;5.306;2022-10-16T04:33:16;21.30;70.20
27188;DHT22;14708;50.872;5.306;2022-10-16T04:35:41;21.30;70.10
27188;DHT22;14708;50.872;5.306;2022-10-16T04:38:07;21.30;70.40
27188;DHT22;14708;50.872;5.306;2022-10-16T04:40:32;21.30;70.40
27188;DHT22;14708;50.872;5.306;2022-10-16T04:42:58;21.20;70.30
27188;DHT22;14708;50.872;5.306;2022-10-16T04:45:24;21.30;70.50
27188;DHT22;14708;50.872;5.306;2022-10-16T04:47:50;21.30;70.30
27188;DHT22;14708;50.872;5.306;2022-10-16T04:50:16;21.30;70.40
27188;DHT22;14708;50.872;5.306;2022-10-16T04:52:41;21.20;70.20
27188;DHT22;14708;50.872;5.306;2022-10-16T04:55:07;21.30;70.20
27188;DHT22;14708;50.872;5.306;2022-10-16T04:57:33;21.20;70.30
27188;DHT22;14708;50.872;5.306;2022-10-16T04:59:59;21.20;70.20
27188;DHT22;14708;50.872;5.306;2022-10-16T05:02:25;21.20;70.20
27188;DHT22;14708;50.872;5.306;2022-10-16T05:04:51;21.30;69.70
27188;DHT22;14708;50.872;5.306;2022-10-16T05:07:16;21.40;69.90
27188;DHT22;14708;50.872;5.306;2022-10-16T05:09:42;21.30;70.00
27188;DHT22;14708;50.872;5.306;2022-10-16T05:12:08;21.30;70.40
27188;DHT22;14708;50.872;5.306;2022-10-16T05:14:33;21.20;70.30
27188;DHT22;14708;50.872;5.306;2022-10-16T05:16:59;21.20;70.40
27188;DHT22;14708;50.872;5.306;2022-10-16T05:19:25;21.20;70.20
27188;DHT22;14708;50.872;5.306;2022-10-16T05:21:51;21.20;70.50
27188;DHT22;14708;50.872;5.306;2022-10-16T05:24:17;21.20;70.20
27188;DHT22;14708;50.872;5.306;2022-10-16T05:26:42;21.20;70.20
27188;DHT22;14708;50.872;5.306;2022-10-16T05:29:08;21.20;70.10
27188;DHT22;14708;50.872;5.306;2022-10-16T05:31:34;21.30;70.20
27188;DHT22;14708;50.872;5.306;2022-10-16T05:34:00;21.30;69.70
27188;DHT22;14708;50.872;5.306;2022-10-16T05:36:26;21.30;69.40
27188;DHT22;14708;50.872;5.306;2022-10-16T05:38:52;21.30;69.00
27188;DHT22;14708;50.872;5.306;2022-10-16T05:41:18;21.30;68.90
27188;DHT22;14708;50.872;5.306;2022-10-16T05:43:50;21.40;69.00
27188;DHT22;14708;50.872;5.306;2022-10-16T05:46:16;21.40;69.10
27188;DHT22;14708;50.872;5.306;2022-10-16T05:48:42;21.40;69.50
27188;DHT22;14708;50.872;5.306;2022-10-16T05:51:10;21.40;70.00
27188;DHT22;14708;50.872;5.306;2022-10-16T05:53:37;21.40;70.30
27188;DHT22;14708;50.872;5.306;2022-10-16T05:56:05;21.40;70.90
27188;DHT22;14708;50.872;5.306;2022-10-16T05:58:33;21.30;70.10
27188;DHT22;14708;50.872;5.306;2022-10-16T06:01:07;21.30;70.10
27188;DHT22;14708;50.872;5.306;2022-10-16T06:03:33;21.30;70.40
27188;DHT22;14708;50.872;5.306;2022-10-16T06:05:59;21.20;70.40
27188;DHT22;14708;50.872;5.306;2022-10-16T06:08:32;21.20;70.50
27188;DHT22;14708;50.872;5.306;2022-10-16T06:11:24;21.20;70.60
27188;DHT22;14708;50.872;5.306;2022-10-16T06:13:51;21.10;70.50
27188;DHT22;14708;50.872;5.306;2022-10-16T06:16:17;21.10;70.60
27188;DHT22;14708;50.872;5.306;2022-10-16T06:18:43;21.10;70.70
27188;DHT22;14708;50.872;5.306;2022-10-16T06:21:10;21.10;70.60
27188;DHT22;14708;50.872;5.306;2022-10-16T06:23:36;21.10;70.70
27188;DHT22;14708;50.872;5.306;2022-10-16T06:26:23;21.10;70.60
27188;DHT22;14708;50.872;5.306;2022-10-16T06:28:49;21.10;70.60
27188;DHT22;14708;50.872;5.306;2022-10-16T06:31:16;21.10;70.40
27188;DHT22;14708;50.872;5.306;2022-10-16T06:33:41;21.10;70.60
27188;DHT22;14708;50.872;5.306;2022-10-16T06:36:12;21.20;70.10
27188;DHT22;14708;50.872;5.306;2022-10-16T06:38:39;21.20;69.40
27188;DHT22;14708;50.872;5.306;2022-10-16T06:41:06;21.30;68.60
27188;DHT22;14708;50.872;5.306;2022-10-16T06:43:32;21.20;67.90
27188;DHT22;14708;50.872;5.306;2022-10-16T06:45:59;21.30;68.40
27188;DHT22;14708;50.872;5.306;2022-10-16T06:48:25;21.20;69.30
27188;DHT22;14708;50.872;5.306;2022-10-16T06:53:23;21.20;68.90
27188;DHT22;14708;50.872;5.306;2022-10-16T06:55:48;21.20;69.00
27188;DHT22;14708;50.872;5.306;2022-10-16T06:58:14;21.30;69.00
27188;DHT22;14708;50.872;5.306;2022-10-16T07:00:39;21.30;68.90
27188;DHT22;14708;50.872;5.306;2022-10-16T07:03:05;21.40;69.00
27188;DHT22;14708;50.872;5.306;2022-10-16T07:05:31;21.30;69.20
27188;DHT22;14708;50.872;5.306;2022-10-16T07:07:56;21.30;69.40
27188;DHT22;14708;50.872;5.306;2022-10-16T07:10:22;21.30;69.50
27188;DHT22;14708;50.872;5.306;2022-10-16T07:12:49;21.50;69.20
27188;DHT22;14708;50.872;5.306;2022-10-16T07:15:15;21.50;68.80
27188;DHT22;14708;50.872;5.306;2022-10-16T07:17:40;21.50;69.00
27188;DHT22;14708;50.872;5.306;2022-10-16T07:20:06;21.50;68.80
27188;DHT22;14708;50.872;5.306;2022-10-16T07:22:32;21.50;69.00
27188;DHT22;14708;50.872;5.306;2022-10-16T07:24:58;21.60;68.80
27188;DHT22;14708;50.872;5.306;2022-10-16T07:27:24;21.60;69.00
27188;DHT22;14708;50.872;5.306;2022-10-16T07:29:50;21.60;68.70
27188;DHT22;14708;50.872;5.306;2022-10-16T07:32:15;21.70;68.70
27188;DHT22;14708;50.872;5.306;2022-10-16T07:34:41;21.60;68.90
27188;DHT22;14708;50.872;5.306;2022-10-16T07:37:07;21.70;68.10
27188;DHT22;14708;50.872;5.306;2022-10-16T07:39:33;21.60;68.70
27188;DHT22;14708;50.872;5.306;2022-10-16T07:41:59;21.70;68.10
27188;DHT22;14708;50.872;5.306;2022-10-16T07:44:24;21.70;68.40
27188;DHT22;14708;50.872;5.306;2022-10-16T07:46:50;21.60;68.70
27188;DHT22;14708;50.872;5.306;2022-10-16T07:49:16;21.60;68.90
27188;DHT22;14708;50.872;5.306;2022-10-16T07:51:41;21.60;69.50
27188;DHT22;14708;50.872;5.306;2022-10-16T07:54:08;21.60;69.80
27188;DHT22;14708;50.872;5.306;2022-10-16T07:56:34;21.60;70.00
27188;DHT22;14708;50.872;5.306;2022-10-16T07:59:00;21.60;70.20
27188;DHT22;14708;50.872;5.306;2022-10-16T08:01:25;21.60;70.30
27188;DHT22;14708;50.872;5.306;2022-10-16T08:03:51;21.50;70.30
27188;DHT22;14708;50.872;5.306;2022-10-16T08:06:19;21.50;70.60
27188;DHT22;14708;50.872;5.306;2022-10-16T08:08:44;21.50;70.50
27188;DHT22;14708;50.872;5.306;2022-10-16T08:11:10;21.60;70.40
27188;DHT22;14708;50.872;5.306;2022-10-16T08:13:36;21.60;70.20
27188;DHT22;14708;50.872;5.306;2022-10-16T08:16:02;21.50;70.30
27188;DHT22;14708;50.872;5.306;2022-10-16T08:18:34;21.60;70.50
27188;DHT22;14708;50.872;5.306;2022-10-16T08:21:00;21.70;70.00
27188;DHT22;14708;50.872;5.306;2022-10-16T08:23:27;21.60;69.90
27188;DHT22;14708;50.872;5.306;2022-10-16T08:25:53;21.60;67.60
27188;DHT22;14708;50.872;5.306;2022-10-16T08:28:19;21.70;68.30
27188;DHT22;14708;50.872;5.306;2022-10-16T08:30:44;21.70;69.50
27188;DHT22;14708;50.872;5.306;2022-10-16T08:33:10;21.70;69.00
27188;DHT22;14708;50.872;5.306;2022-10-16T08:35:36;21.70;68.70
27188;DHT22;14708;50.872;5.306;2022-10-16T08:38:05;21.70;68.40
27188;DHT22;14708;50.872;5.306;2022-10-16T08:40:32;21.70;68.30
27188;DHT22;14708;50.872;5.306;2022-10-16T08:48:26;21.70;68.80
27188;DHT22;14708;50.872;5.306;2022-10-16T08:50:53;21.70;68.80
27188;DHT22;14708;50.872;5.306;2022-10-16T08:53:31;21.70;69.00
27188;DHT22;14708;50.872;5.306;2022-10-16T08:56:01;21.80;68.70
27188;DHT22;14708;50.872;5.306;2022-10-16T08:58:28;21.80;69.00
27188;DHT22;14708;50.872;5.306;2022-10-16T09:01:03;21.80;69.10
27188;DHT22;14708;50.872;5.306;2022-10-16T09:07:02;21.90;75.10
27188;DHT22;14708;50.872;5.306;2022-10-16T09:09:58;21.80;76.00
27188;DHT22;14708;50.872;5.306;2022-10-16T09:12:39;21.80;76.30
27188;DHT22;14708;50.872;5.306;2022-10-16T09:15:29;21.70;76.00
27188;DHT22;14708;50.872;5.306;2022-10-16T09:18:28;21.70;74.90
27188;DHT22;14708;50.872;5.306;2022-10-16T09:21:05;21.60;72.50
27188;DHT22;14708;50.872;5.306;2022-10-16T09:23:35;21.60;71.40
27188;DHT22;14708;50.872;5.306;2022-10-16T09:26:02;21.60;70.50
27188;DHT22;14708;50.872;5.306;2022-10-16T09:28:29;21.70;67.50
27188;DHT22;14708;50.872;5.306;2022-10-16T09:30:54;21.80;68.40
27188;DHT22;14708;50.872;5.306;2022-10-16T09:33:33;21.90;68.30
27188;DHT22;14708;50.872;5.306;2022-10-16T09:36:00;22.00;68.40
27188;DHT22;14708;50.872;5.306;2022-10-16T09:38:31;21.90;65.50
27188;DHT22;14708;50.872;5.306;2022-10-16T09:40:58;21.90;68.00
27188;DHT22;14708;50.872;5.306;2022-10-16T09:46:21;21.90;67.30
27188;DHT22;14708;50.872;5.306;2022-10-16T09:48:49;21.80;68.20
27188;DHT22;14708;50.872;5.306;2022-10-16T09:51:30;21.80;68.50
27188;DHT22;14708;50.872;5.306;2022-10-16T09:54:21;21.80;68.80
27188;DHT22;14708;50.872;5.306;2022-10-16T09:56:46;21.80;68.90
27188;DHT22;14708;50.872;5.306;2022-10-16T09:59:19;21.80;69.00
27188;DHT22;14708;50.872;5.306;2022-10-16T10:01:50;21.80;69.30
27188;DHT22;14708;50.872;5.306;2022-10-16T10:04:17;21.70;69.50
27188;DHT22;14708;50.872;5.306;2022-10-16T10:16:46;21.70;70.30
27188;DHT22;14708;50.872;5.306;2022-10-16T10:19:19;21.70;70.30
27188;DHT22;14708;50.872;5.306;2022-10-16T10:21:45;21.70;70.70
27188;DHT22;14708;50.872;5.306;2022-10-16T10:24:13;21.70;70.50
27188;DHT22;14708;50.872;5.306;2022-10-16T10:26:44;21.70;70.50
27188;DHT22;14708;50.872;5.306;2022-10-16T10:29:56;21.80;70.10
27188;DHT22;14708;50.872;5.306;2022-10-16T10:47:25;21.90;69.60
27188;DHT22;14708;50.872;5.306;2022-10-16T10:57:57;21.80;70.60
27188;DHT22;14708;50.872;5.306;2022-10-16T11:00:30;21.80;70.70
27188;DHT22;14708;50.872;5.306;2022-10-16T11:05:59;21.80;70.90
27188;DHT22;14708;50.872;5.306;2022-10-16T11:11:24;21.80;71.00
27188;DHT22;14708;50.872;5.306;2022-10-16T11:16:32;22.00;68.10
27188;DHT22;14708;50.872;5.306;2022-10-16T11:19:01;22.00;67.60
27188;DHT22;14708;50.872;5.306;2022-10-16T11:21:31;22.00;67.20
27188;DHT22;14708;50.872;5.306;2022-10-16T11:24:08;22.10;67.00
27188;DHT22;14708;50.872;5.306;2022-10-16T11:26:39;22.10;68.10
27188;DHT22;14708;50.872;5.306;2022-10-16T11:29:14;22.10;68.70
27188;DHT22;14708;50.872;5.306;2022-10-16T11:31:47;22.10;68.50
27188;DHT22;14708;50.872;5.306;2022-10-16T11:34:21;22.10;67.80
27188;DHT22;14708;50.872;5.306;2022-10-16T11:39:29;21.90;69.00
27188;DHT22;14708;50.872;5.306;2022-10-16T11:42:13;21.90;69.10
27188;DHT22;14708;50.872;5.306;2022-10-16T11:45:03;21.80;69.30
27188;DHT22;14708;50.872;5.306;2022-10-16T11:47:54;21.80;69.20
27188;DHT22;14708;50.872;5.306;2022-10-16T11:50:43;21.80;69.30
27188;DHT22;14708;50.872;5.306;2022-10-16T11:53:50;21.80;69.40
27188;DHT22;14708;50.872;5.306;2022-10-16T11:56:20;21.80;69.50
27188;DHT22;14708;50.872;5.306;2022-10-16T11:58:54;21.80;69.50
27188;DHT22;14708;50.872;5.306;2022-10-16T12:01:27;21.80;69.50
27188;DHT22;14708;50.872;5.306;2022-10-16T12:06:55;21.80;69.40
27188;DHT22;14708;50.872;5.306;2022-10-16T12:09:32;21.80;69.50
27188;DHT22;14708;50.872;5.306;2022-10-16T12:11:58;21.80;69.30
27188;DHT22;14708;50.872;5.306;2022-10-16T12:14:37;21.80;69.20
27188;DHT22;14708;50.872;5.306;2022-10-16T12:17:23;21.90;69.20
27188;DHT22;14708;50.872;5.306;2022-10-16T12:20:00;21.90;69.30
27188;DHT22;14708;50.872;5.306;2022-10-16T12:22:29;21.80;69.40
27188;DHT22;14708;50.872;5.306;2022-10-16T12:24:55;21.80;69.30
27188;DHT22;14708;50.872;5.306;2022-10-16T12:27:30;21.80;69.30
27188;DHT22;14708;50.872;5.306;2022-10-16T12:30:06;21.80;69.30
27188;DHT22;14708;50.872;5.306;2022-10-16T12:32:34;21.80;69.40
27188;DHT22;14708;50.872;5.306;2022-10-16T12:35:01;21.80;69.30
27188;DHT22;14708;50.872;5.306;2022-10-16T12:37:36;21.80;69.30
27188;DHT22;14708;50.872;5.306;2022-10-16T12:42:50;21.80;69.30
27188;DHT22;14708;50.872;5.306;2022-10-16T12:45:33;21.80;69.30
27188;DHT22;14708;50.872;5.306;2022-10-16T12:48:18;21.80;69.40
27188;DHT22;14708;50.872;5.306;2022-10-16T12:50:44;21.80;69.40
27188;DHT22;14708;50.872;5.306;2022-10-16T12:53:21;21.80;69.30
27188;DHT22;14708;50.872;5.306;2022-10-16T12:56:08;21.80;69.20
27188;DHT22;14708;50.872;5.306;2022-10-16T13:01:28;21.80;69.30
27188;DHT22;14708;50.872;5.306;2022-10-16T13:04:11;21.80;69.40
27188;DHT22;14708;50.872;5.306;2022-10-16T13:06:53;21.80;69.50
27188;DHT22;14708;50.872;5.306;2022-10-16T13:12:31;21.80;69.30
27188;DHT22;14708;50.872;5.306;2022-10-16T13:15:33;21.90;69.10
27188;DHT22;14708;50.872;5.306;2022-10-16T13:18:16;22.00;68.30
27188;DHT22;14708;50.872;5.306;2022-10-16T13:21:07;22.10;68.30
27188;DHT22;14708;50.872;5.306;2022-10-16T13:28:35;22.30;67.90
27188;DHT22;14708;50.872;5.306;2022-10-16T13:31:03;22.40;68.00
27188;DHT22;14708;50.872;5.306;2022-10-16T13:33:37;22.40;67.90
27188;DHT22;14708;50.872;5.306;2022-10-16T13:36:04;22.50;68.20
27188;DHT22;14708;50.872;5.306;2022-10-16T13:38:32;22.50;68.20
27188;DHT22;14708;50.872;5.306;2022-10-16T13:41:00;22.50;68.30
27188;DHT22;14708;50.872;5.306;2022-10-16T13:45:58;22.50;68.60
27188;DHT22;14708;50.872;5.306;2022-10-16T13:48:24;22.50;68.60
27188;DHT22;14708;50.872;5.306;2022-10-16T13:51:04;22.60;68.90
27188;DHT22;14708;50.872;5.306;2022-10-16T13:53:35;22.60;68.90
27188;DHT22;14708;50.872;5.306;2022-10-16T13:56:06;22.60;68.70
27188;DHT22;14708;50.872;5.306;2022-10-16T13:58:32;22.80;68.90
27188;DHT22;14708;50.872;5.306;2022-10-16T14:01:00;22.80;68.80
27188;DHT22;14708;50.872;5.306;2022-10-16T14:03:27;22.90;68.80
27188;DHT22;14708;50.872;5.306;2022-10-16T14:05:55;22.90;68.70
27188;DHT22;14708;50.872;5.306;2022-10-16T14:08:23;23.00;68.50
27188;DHT22;14708;50.872;5.306;2022-10-16T14:10:53;23.00;68.60
27188;DHT22;14708;50.872;5.306;2022-10-16T14:15:55;23.00;68.70
27188;DHT22;14708;50.872;5.306;2022-10-16T14:18:23;23.00;68.70
27188;DHT22;14708;50.872;5.306;2022-10-16T14:20:50;23.00;67.80
27188;DHT22;14708;50.872;5.306;2022-10-16T14:23:28;23.10;68.10
27188;DHT22;14708;50.872;5.306;2022-10-16T14:28:33;23.10;68.50
27188;DHT22;14708;50.872;5.306;2022-10-16T14:31:00;23.20;68.60
27188;DHT22;14708;50.872;5.306;2022-10-16T14:36:24;23.20;69.00
27188;DHT22;14708;50.872;5.306;2022-10-16T14:39:06;23.20;68.80
27188;DHT22;14708;50.872;5.306;2022-10-16T14:41:41;23.20;69.40
27188;DHT22;14708;50.872;5.306;2022-10-16T14:44:10;23.20;69.30
27188;DHT22;14708;50.872;5.306;2022-10-16T14:46:39;23.20;69.00
27188;DHT22;14708;50.872;5.306;2022-10-16T14:51:34;23.10;69.50
27188;DHT22;14708;50.872;5.306;2022-10-16T14:53:59;23.10;69.70
27188;DHT22;14708;50.872;5.306;2022-10-16T14:56:29;23.00;69.70
27188;DHT22;14708;50.872;5.306;2022-10-16T14:58:55;23.00;69.80
27188;DHT22;14708;50.872;5.306;2022-10-16T15:01:21;23.00;69.90
27188;DHT22;14708;50.872;5.306;2022-10-16T15:03:47;23.10;70.10
27188;DHT22;14708;50.872;5.306;2022-10-16T15:06:14;23.10;70.30
27188;DHT22;14708;50.872;5.306;2022-10-16T15:08:41;23.10;70.60
27188;DHT22;14708;50.872;5.306;2022-10-16T15:11:14;23.20;70.60
27188;DHT22;14708;50.872;5.306;2022-10-16T15:13:41;23.30;70.90
27188;DHT22;14708;50.872;5.306;2022-10-16T15:16:15;23.30;71.00
27188;DHT22;14708;50.872;5.306;2022-10-16T15:18:41;23.40;71.50
27188;DHT22;14708;50.872;5.306;2022-10-16T15:21:07;23.40;71.00
27188;DHT22;14708;50.872;5.306;2022-10-16T15:23:32;23.40;71.40
27188;DHT22;14708;50.872;5.306;2022-10-16T15:25:59;23.40;71.40
27188;DHT22;14708;50.872;5.306;2022-10-16T15:28:27;23.50;71.00
27188;DHT22;14708;50.872;5.306;2022-10-16T15:30:54;23.50;71.50
27188;DHT22;14708;50.872;5.306;2022-10-16T15:33:22;23.60;71.90
27188;DHT22;14708;50.872;5.306;2022-10-16T15:35:50;23.40;71.10
27188;DHT22;14708;50.872;5.306;2022-10-16T15:38:19;23.30;71.90
27188;DHT22;14708;50.872;5.306;2022-10-16T15:40:48;23.40;71.70
27188;DHT22;14708;50.872;5.306;2022-10-16T15:43:14;23.30;72.30
27188;DHT22;14708;50.872;5.306;2022-10-16T15:45:40;23.30;72.50
27188;DHT22;14708;50.872;5.306;2022-10-16T15:48:08;23.30;73.20
27188;DHT22;14708;50.872;5.306;2022-10-16T15:50:37;23.40;72.90
27188;DHT22;14708;50.872;5.306;2022-10-16T15:53:03;23.30;72.30
27188;DHT22;14708;50.872;5.306;2022-10-16T15:55:28;23.30;72.80
27188;DHT22;14708;50.872;5.306;2022-10-16T15:57:55;23.30;73.20
27188;DHT22;14708;50.872;5.306;2022-10-16T16:00:20;23.30;73.00
27188;DHT22;14708;50.872;5.306;2022-10-16T16:02:53;23.40;73.60
27188;DHT22;14708;50.872;5.306;2022-10-16T16:05:20;23.40;72.80
27188;DHT22;14708;50.872;5.306;2022-10-16T16:07:46;23.30;64.80
27188;DHT22;14708;50.872;5.306;2022-10-16T16:10:12;23.30;68.60
27188;DHT22;14708;50.872;5.306;2022-10-16T16:12:38;23.30;70.00
27188;DHT22;14708;50.872;5.306;2022-10-16T16:15:05;23.30;70.30
27188;DHT22;14708;50.872;5.306;2022-10-16T16:17:33;23.30;70.40
27188;DHT22;14708;50.872;5.306;2022-10-16T16:19:58;23.30;70.70
27188;DHT22;14708;50.872;5.306;2022-10-16T16:22:24;23.30;70.50
27188;DHT22;14708;50.872;5.306;2022-10-16T16:24:50;23.30;70.70
27188;DHT22;14708;50.872;5.306;2022-10-16T16:27:16;23.30;70.90
27188;DHT22;14708;50.872;5.306;2022-10-16T16:29:42;23.30;71.20
27188;DHT22;14708;50.872;5.306;2022-10-16T16:32:08;23.30;71.20
27188;DHT22;14708;50.872;5.306;2022-10-16T16:34:33;23.30;71.60
27188;DHT22;14708;50.872;5.306;2022-10-16T16:36:59;23.30;71.40
27188;DHT22;14708;50.872;5.306;2022-10-16T16:39:25;23.20;71.30
27188;DHT22;14708;50.872;5.306;2022-10-16T16:41:51;23.30;71.90
27188;DHT22;14708;50.872;5.306;2022-10-16T16:44:17;23.40;71.20
27188;DHT22;14708;50.872;5.306;2022-10-16T16:46:43;23.30;70.30
27188;DHT22;14708;50.872;5.306;2022-10-16T16:49:11;23.30;70.50
27188;DHT22;14708;50.872;5.306;2022-10-16T16:51:38;23.30;71.40
27188;DHT22;14708;50.872;5.306;2022-10-16T16:54:04;23.40;70.20
27188;DHT22;14708;50.872;5.306;2022-10-16T16:56:30;23.30;70.10
27188;DHT22;14708;50.872;5.306;2022-10-16T16:59:15;23.30;70.70
27188;DHT22;14708;50.872;5.306;2022-10-16T17:01:41;23.30;70.90
27188;DHT22;14708;50.872;5.306;2022-10-16T17:04:07;23.30;70.50
27188;DHT22;14708;50.872;5.306;2022-10-16T17:06:33;23.20;70.80
27188;DHT22;14708;50.872;5.306;2022-10-16T17:09:01;23.20;71.00
27188;DHT22;14708;50.872;5.306;2022-10-16T17:11:28;23.20;70.00
27188;DHT22;14708;50.872;5.306;2022-10-16T17:13:55;23.20;69.40
27188;DHT22;14708;50.872;5.306;2022-10-16T17:16:27;23.10;69.90
27188;DHT22;14708;50.872;5.306;2022-10-16T17:18:53;23.10;70.10
27188;DHT22;14708;50.872;5.306;2022-10-16T17:21:19;23.10;70.60
27188;DHT22;14708;50.872;5.306;2022-10-16T17:23:44;23.10;70.80
27188;DHT22;14708;50.872;5.306;2022-10-16T17:26:13;23.10;70.50
27188;DHT22;14708;50.872;5.306;2022-10-16T17:28:39;23.00;70.90